Terminal Aerodrome Forecast
Issued by NWS

Home | Current Version | Previous Version | Text Only | Print | Product List | Glossary On
Versions: 1 2 3 4 5 6 7 8 9 10 11 12 13
000
FTUS45 KABQ 230533
TAFLVS
TAF
KLVS 230533Z 2306/2406 17017KT P6SM BKN200
     FM231500 21022G33KT P6SM SCT150
     FM231800 22037G49KT P6SM SCT140
     FM232200 25029G40KT P6SM BKN100
     FM240200 28021G31KT P6SM SCT070=

USA.gov is the U.S. government's official web portal to all federal, state and local government web resources and services.